sensor_id;sensor_type;location;lat;lon;timestamp;P1;durP1;ratioP1;P2;durP2;ratioP2
47796;SDS011;33558;50.922;14.068;2022-09-30T00:03:46;10.93;;;6.70;;
47796;SDS011;33558;50.922;14.068;2022-09-30T00:06:14;9.33;;;6.93;;
47796;SDS011;33558;50.922;14.068;2022-09-30T00:08:41;8.77;;;6.73;;
47796;SDS011;33558;50.922;14.068;2022-09-30T00:11:11;9.13;;;7.00;;
47796;SDS011;33558;50.922;14.068;2022-09-30T00:13:45;13.83;;;7.10;;
47796;SDS011;33558;50.922;14.068;2022-09-30T00:16:15;9.50;;;7.27;;
47796;SDS011;33558;50.922;14.068;2022-09-30T00:18:55;11.27;;;7.90;;
47796;SDS011;33558;50.922;14.068;2022-09-30T00:21:27;12.07;;;7.67;;
47796;SDS011;33558;50.922;14.068;2022-09-30T00:24:00;10.37;;;7.33;;
47796;SDS011;33558;50.922;14.068;2022-09-30T00:26:30;10.23;;;8.00;;
47796;SDS011;33558;50.922;14.068;2022-09-30T00:28:59;11.47;;;7.73;;
47796;SDS011;33558;50.922;14.068;2022-09-30T00:31:33;13.43;;;8.20;;
47796;SDS011;33558;50.922;14.068;2022-09-30T00:34:04;9.70;;;8.20;;
47796;SDS011;33558;50.922;14.068;2022-09-30T00:36:40;15.00;;;8.05;;
47796;SDS011;33558;50.922;14.068;2022-09-30T00:39:33;10.70;;;7.90;;
47796;SDS011;33558;50.922;14.068;2022-09-30T00:42:06;11.07;;;7.33;;
47796;SDS011;33558;50.922;14.068;2022-09-30T00:45:02;10.37;;;7.60;;
47796;SDS011;33558;50.922;14.068;2022-09-30T00:48:14;10.60;;;7.40;;
47796;SDS011;33558;50.922;14.068;2022-09-30T00:50:50;10.77;;;7.30;;
47796;SDS011;33558;50.922;14.068;2022-09-30T00:53:24;12.23;;;7.57;;
47796;SDS011;33558;50.922;14.068;2022-09-30T00:55:57;10.57;;;7.53;;
47796;SDS011;33558;50.922;14.068;2022-09-30T00:58:27;11.00;;;7.47;;
47796;SDS011;33558;50.922;14.068;2022-09-30T01:01:32;11.20;;;7.83;;
47796;SDS011;33558;50.922;14.068;2022-09-30T01:04:03;12.13;;;7.57;;
47796;SDS011;33558;50.922;14.068;2022-09-30T01:18:06;10.18;;;7.13;;
47796;SDS011;33558;50.922;14.068;2022-09-30T01:23:49;11.27;;;7.30;;
47796;SDS011;33558;50.922;14.068;2022-09-30T01:26:41;11.50;;;7.22;;
47796;SDS011;33558;50.922;14.068;2022-09-30T01:33:33;12.40;;;6.78;;
47796;SDS011;33558;50.922;14.068;2022-09-30T01:36:15;10.20;;;7.50;;
47796;SDS011;33558;50.922;14.068;2022-09-30T01:38:51;10.43;;;7.63;;
47796;SDS011;33558;50.922;14.068;2022-09-30T01:41:32;10.70;;;7.57;;
47796;SDS011;33558;50.922;14.068;2022-09-30T01:48:07;12.07;;;7.82;;
47796;SDS011;33558;50.922;14.068;2022-09-30T01:50:57;9.67;;;7.63;;
47796;SDS011;33558;50.922;14.068;2022-09-30T01:57:38;9.43;;;6.63;;
47796;SDS011;33558;50.922;14.068;2022-09-30T02:00:10;9.47;;;7.07;;
47796;SDS011;33558;50.922;14.068;2022-09-30T02:02:38;9.97;;;7.10;;
47796;SDS011;33558;50.922;14.068;2022-09-30T02:05:12;10.47;;;7.70;;
47796;SDS011;33558;50.922;14.068;2022-09-30T02:07:44;10.63;;;7.80;;
47796;SDS011;33558;50.922;14.068;2022-09-30T02:10:15;9.53;;;7.80;;
47796;SDS011;33558;50.922;14.068;2022-09-30T02:12:47;10.20;;;7.83;;
47796;SDS011;33558;50.922;14.068;2022-09-30T02:15:20;11.50;;;8.07;;
47796;SDS011;33558;50.922;14.068;2022-09-30T02:17:49;9.80;;;7.77;;
47796;SDS011;33558;50.922;14.068;2022-09-30T02:20:21;12.50;;;7.60;;
47796;SDS011;33558;50.922;14.068;2022-09-30T02:22:55;9.83;;;7.67;;
47796;SDS011;33558;50.922;14.068;2022-09-30T02:25:31;11.10;;;7.90;;
47796;SDS011;33558;50.922;14.068;2022-09-30T02:28:41;10.57;;;7.57;;
47796;SDS011;33558;50.922;14.068;2022-09-30T02:31:14;8.73;;;6.80;;
47796;SDS011;33558;50.922;14.068;2022-09-30T02:33:45;11.80;;;7.87;;
47796;SDS011;33558;50.922;14.068;2022-09-30T02:36:18;11.50;;;7.93;;
47796;SDS011;33558;50.922;14.068;2022-09-30T02:38:53;10.45;;;7.10;;
47796;SDS011;33558;50.922;14.068;2022-09-30T02:41:27;12.93;;;7.57;;
47796;SDS011;33558;50.922;14.068;2022-09-30T02:43:56;13.33;;;7.73;;
47796;SDS011;33558;50.922;14.068;2022-09-30T02:46:38;10.13;;;7.17;;
47796;SDS011;33558;50.922;14.068;2022-09-30T02:51:44;11.23;;;7.93;;
47796;SDS011;33558;50.922;14.068;2022-09-30T02:54:20;12.53;;;8.60;;
47796;SDS011;33558;50.922;14.068;2022-09-30T02:56:53;9.97;;;8.00;;
47796;SDS011;33558;50.922;14.068;2022-09-30T02:59:22;12.40;;;7.93;;
47796;SDS011;33558;50.922;14.068;2022-09-30T03:01:50;8.63;;;7.33;;
47796;SDS011;33558;50.922;14.068;2022-09-30T03:04:18;10.30;;;7.30;;
47796;SDS011;33558;50.922;14.068;2022-09-30T03:06:48;14.97;;;8.13;;
47796;SDS011;33558;50.922;14.068;2022-09-30T03:09:15;10.00;;;7.53;;
47796;SDS011;33558;50.922;14.068;2022-09-30T03:11:42;12.10;;;7.70;;
47796;SDS011;33558;50.922;14.068;2022-09-30T03:17:12;12.80;;;7.87;;
47796;SDS011;33558;50.922;14.068;2022-09-30T03:19:58;10.73;;;8.00;;
47796;SDS011;33558;50.922;14.068;2022-09-30T03:22:40;11.75;;;7.82;;
47796;SDS011;33558;50.922;14.068;2022-09-30T03:25:17;11.63;;;8.07;;
47796;SDS011;33558;50.922;14.068;2022-09-30T03:27:53;12.13;;;8.37;;
47796;SDS011;33558;50.922;14.068;2022-09-30T03:30:27;12.23;;;7.93;;
47796;SDS011;33558;50.922;14.068;2022-09-30T03:33:00;10.50;;;7.90;;
47796;SDS011;33558;50.922;14.068;2022-09-30T03:38:05;10.57;;;7.53;;
47796;SDS011;33558;50.922;14.068;2022-09-30T03:40:39;14.55;;;9.10;;
47796;SDS011;33558;50.922;14.068;2022-09-30T03:43:11;13.73;;;8.17;;
47796;SDS011;33558;50.922;14.068;2022-09-30T03:45:45;13.00;;;7.95;;
47796;SDS011;33558;50.922;14.068;2022-09-30T03:48:16;20.77;;;9.37;;
47796;SDS011;33558;50.922;14.068;2022-09-30T03:50:44;13.53;;;9.40;;
47796;SDS011;33558;50.922;14.068;2022-09-30T03:53:12;12.97;;;8.80;;
47796;SDS011;33558;50.922;14.068;2022-09-30T03:55:43;19.40;;;10.60;;
47796;SDS011;33558;50.922;14.068;2022-09-30T03:58:13;14.17;;;10.30;;
47796;SDS011;33558;50.922;14.068;2022-09-30T04:00:40;13.73;;;10.43;;
47796;SDS011;33558;50.922;14.068;2022-09-30T04:03:11;14.40;;;10.53;;
47796;SDS011;33558;50.922;14.068;2022-09-30T04:05:38;15.37;;;10.63;;
47796;SDS011;33558;50.922;14.068;2022-09-30T04:08:04;15.47;;;11.13;;
47796;SDS011;33558;50.922;14.068;2022-09-30T04:10:33;16.13;;;11.33;;
47796;SDS011;33558;50.922;14.068;2022-09-30T04:12:59;13.73;;;9.70;;
47796;SDS011;33558;50.922;14.068;2022-09-30T04:15:26;11.53;;;8.80;;
47796;SDS011;33558;50.922;14.068;2022-09-30T04:17:53;11.20;;;8.10;;
47796;SDS011;33558;50.922;14.068;2022-09-30T04:20:19;9.90;;;7.47;;
47796;SDS011;33558;50.922;14.068;2022-09-30T04:22:46;17.70;;;9.27;;
47796;SDS011;33558;50.922;14.068;2022-09-30T04:25:13;11.43;;;8.50;;
47796;SDS011;33558;50.922;14.068;2022-09-30T04:27:41;13.00;;;8.90;;
47796;SDS011;33558;50.922;14.068;2022-09-30T04:30:09;11.13;;;8.60;;
47796;SDS011;33558;50.922;14.068;2022-09-30T04:32:36;14.17;;;9.93;;
47796;SDS011;33558;50.922;14.068;2022-09-30T04:35:03;13.63;;;9.70;;
47796;SDS011;33558;50.922;14.068;2022-09-30T04:37:30;14.80;;;10.57;;
47796;SDS011;33558;50.922;14.068;2022-09-30T04:39:57;13.87;;;10.30;;
47796;SDS011;33558;50.922;14.068;2022-09-30T04:42:24;13.30;;;10.00;;
47796;SDS011;33558;50.922;14.068;2022-09-30T04:44:52;12.23;;;9.53;;
47796;SDS011;33558;50.922;14.068;2022-09-30T04:47:22;11.97;;;9.37;;
47796;SDS011;33558;50.922;14.068;2022-09-30T04:49:49;13.43;;;9.13;;
47796;SDS011;33558;50.922;14.068;2022-09-30T04:52:16;15.43;;;10.37;;
47796;SDS011;33558;50.922;14.068;2022-09-30T04:54:42;12.87;;;9.00;;
47796;SDS011;33558;50.922;14.068;2022-09-30T04:57:09;13.80;;;9.17;;
47796;SDS011;33558;50.922;14.068;2022-09-30T04:59:36;11.83;;;8.70;;
47796;SDS011;33558;50.922;14.068;2022-09-30T05:02:04;14.10;;;9.60;;
47796;SDS011;33558;50.922;14.068;2022-09-30T05:04:31;11.97;;;8.77;;
47796;SDS011;33558;50.922;14.068;2022-09-30T05:06:58;12.43;;;9.37;;
47796;SDS011;33558;50.922;14.068;2022-09-30T05:09:25;12.13;;;8.90;;
47796;SDS011;33558;50.922;14.068;2022-09-30T05:11:52;13.53;;;9.77;;
47796;SDS011;33558;50.922;14.068;2022-09-30T05:14:19;12.43;;;9.40;;
47796;SDS011;33558;50.922;14.068;2022-09-30T05:16:46;12.27;;;9.43;;
47796;SDS011;33558;50.922;14.068;2022-09-30T05:19:14;14.17;;;9.13;;
47796;SDS011;33558;50.922;14.068;2022-09-30T05:21:40;30.17;;;19.67;;
47796;SDS011;33558;50.922;14.068;2022-09-30T05:24:09;21.80;;;15.27;;
47796;SDS011;33558;50.922;14.068;2022-09-30T05:26:36;17.37;;;10.67;;
47796;SDS011;33558;50.922;14.068;2022-09-30T05:29:04;14.73;;;9.53;;
47796;SDS011;33558;50.922;14.068;2022-09-30T05:31:31;24.73;;;18.20;;
47796;SDS011;33558;50.922;14.068;2022-09-30T05:33:58;23.40;;;15.87;;
47796;SDS011;33558;50.922;14.068;2022-09-30T05:36:26;18.77;;;11.60;;
47796;SDS011;33558;50.922;14.068;2022-09-30T05:38:53;31.90;;;17.80;;
47796;SDS011;33558;50.922;14.068;2022-09-30T05:41:20;17.90;;;10.23;;
47796;SDS011;33558;50.922;14.068;2022-09-30T05:43:47;15.00;;;10.07;;
47796;SDS011;33558;50.922;14.068;2022-09-30T05:46:14;16.83;;;10.03;;
47796;SDS011;33558;50.922;14.068;2022-09-30T05:48:41;13.37;;;9.57;;
47796;SDS011;33558;50.922;14.068;2022-09-30T05:51:08;13.80;;;9.80;;
47796;SDS011;33558;50.922;14.068;2022-09-30T05:53:36;14.13;;;10.13;;
47796;SDS011;33558;50.922;14.068;2022-09-30T05:56:04;13.00;;;9.13;;
47796;SDS011;33558;50.922;14.068;2022-09-30T05:58:31;12.13;;;8.67;;
47796;SDS011;33558;50.922;14.068;2022-09-30T06:01:02;11.03;;;7.50;;
47796;SDS011;33558;50.922;14.068;2022-09-30T06:03:31;11.97;;;8.63;;
47796;SDS011;33558;50.922;14.068;2022-09-30T06:05:58;13.57;;;10.17;;
47796;SDS011;33558;50.922;14.068;2022-09-30T06:08:24;13.43;;;10.77;;
47796;SDS011;33558;50.922;14.068;2022-09-30T06:10:53;11.70;;;8.23;;
47796;SDS011;33558;50.922;14.068;2022-09-30T06:13:19;11.20;;;8.10;;
47796;SDS011;33558;50.922;14.068;2022-09-30T06:15:53;28.83;;;19.30;;
47796;SDS011;33558;50.922;14.068;2022-09-30T06:18:21;75.37;;;56.33;;
47796;SDS011;33558;50.922;14.068;2022-09-30T06:20:48;57.07;;;43.07;;
47796;SDS011;33558;50.922;14.068;2022-09-30T06:23:14;50.80;;;39.23;;
47796;SDS011;33558;50.922;14.068;2022-09-30T06:25:41;62.17;;;48.00;;
47796;SDS011;33558;50.922;14.068;2022-09-30T06:28:10;46.37;;;37.90;;
47796;SDS011;33558;50.922;14.068;2022-09-30T06:30:37;26.83;;;23.93;;
47796;SDS011;33558;50.922;14.068;2022-09-30T06:33:03;25.83;;;23.13;;
47796;SDS011;33558;50.922;14.068;2022-09-30T06:35:30;18.20;;;15.07;;
47796;SDS011;33558;50.922;14.068;2022-09-30T06:37:57;11.20;;;8.17;;
47796;SDS011;33558;50.922;14.068;2022-09-30T06:40:23;9.13;;;8.07;;
47796;SDS011;33558;50.922;14.068;2022-09-30T06:42:50;9.43;;;8.43;;
47796;SDS011;33558;50.922;14.068;2022-09-30T06:45:18;11.43;;;8.47;;
47796;SDS011;33558;50.922;14.068;2022-09-30T06:47:46;11.97;;;8.93;;
47796;SDS011;33558;50.922;14.068;2022-09-30T06:50:15;10.27;;;7.93;;
47796;SDS011;33558;50.922;14.068;2022-09-30T06:52:42;16.20;;;10.03;;
47796;SDS011;33558;50.922;14.068;2022-09-30T06:55:09;12.07;;;10.30;;
47796;SDS011;33558;50.922;14.068;2022-09-30T06:57:36;12.87;;;9.90;;
47796;SDS011;33558;50.922;14.068;2022-09-30T07:00:04;11.77;;;9.00;;
47796;SDS011;33558;50.922;14.068;2022-09-30T07:02:33;14.00;;;8.60;;
47796;SDS011;33558;50.922;14.068;2022-09-30T07:05:00;12.57;;;9.27;;
47796;SDS011;33558;50.922;14.068;2022-09-30T07:07:27;11.50;;;8.40;;
47796;SDS011;33558;50.922;14.068;2022-09-30T07:09:56;11.70;;;8.13;;
47796;SDS011;33558;50.922;14.068;2022-09-30T07:12:22;9.33;;;7.70;;
47796;SDS011;33558;50.922;14.068;2022-09-30T07:14:49;10.23;;;8.30;;
47796;SDS011;33558;50.922;14.068;2022-09-30T07:17:16;12.27;;;7.93;;
47796;SDS011;33558;50.922;14.068;2022-09-30T07:19:44;11.80;;;8.07;;
47796;SDS011;33558;50.922;14.068;2022-09-30T07:22:11;10.67;;;7.77;;
47796;SDS011;33558;50.922;14.068;2022-09-30T07:24:54;11.07;;;7.97;;
47796;SDS011;33558;50.922;14.068;2022-09-30T07:27:21;10.53;;;7.93;;
47796;SDS011;33558;50.922;14.068;2022-09-30T07:29:47;10.30;;;7.70;;
47796;SDS011;33558;50.922;14.068;2022-09-30T07:32:14;11.10;;;7.27;;
47796;SDS011;33558;50.922;14.068;2022-09-30T07:34:45;11.80;;;7.40;;
47796;SDS011;33558;50.922;14.068;2022-09-30T07:37:14;8.93;;;7.03;;
47796;SDS011;33558;50.922;14.068;2022-09-30T07:39:41;9.53;;;7.33;;
47796;SDS011;33558;50.922;14.068;2022-09-30T07:42:09;9.37;;;6.90;;
47796;SDS011;33558;50.922;14.068;2022-09-30T07:44:37;9.93;;;7.67;;
47796;SDS011;33558;50.922;14.068;2022-09-30T07:47:08;10.87;;;7.90;;
47796;SDS011;33558;50.922;14.068;2022-09-30T07:49:35;9.90;;;8.20;;
47796;SDS011;33558;50.922;14.068;2022-09-30T07:52:03;9.53;;;7.07;;
47796;SDS011;33558;50.922;14.068;2022-09-30T07:54:31;11.90;;;7.60;;
47796;SDS011;33558;50.922;14.068;2022-09-30T07:56:59;11.60;;;8.30;;
47796;SDS011;33558;50.922;14.068;2022-09-30T07:59:27;10.37;;;7.60;;
47796;SDS011;33558;50.922;14.068;2022-09-30T08:01:55;13.17;;;7.60;;
47796;SDS011;33558;50.922;14.068;2022-09-30T08:04:23;9.70;;;7.73;;
47796;SDS011;33558;50.922;14.068;2022-09-30T08:06:51;11.93;;;7.97;;
47796;SDS011;33558;50.922;14.068;2022-09-30T08:09:21;10.33;;;8.10;;
47796;SDS011;33558;50.922;14.068;2022-09-30T08:11:49;11.97;;;8.17;;
47796;SDS011;33558;50.922;14.068;2022-09-30T08:14:17;10.17;;;8.30;;
47796;SDS011;33558;50.922;14.068;2022-09-30T08:16:45;10.80;;;7.50;;
47796;SDS011;33558;50.922;14.068;2022-09-30T08:19:13;10.20;;;7.67;;
47796;SDS011;33558;50.922;14.068;2022-09-30T08:21:41;10.10;;;7.77;;
47796;SDS011;33558;50.922;14.068;2022-09-30T08:24:08;8.97;;;7.47;;
47796;SDS011;33558;50.922;14.068;2022-09-30T08:26:36;9.70;;;7.57;;
47796;SDS011;33558;50.922;14.068;2022-09-30T08:29:03;9.33;;;7.67;;
47796;SDS011;33558;50.922;14.068;2022-09-30T08:31:30;9.13;;;7.77;;
47796;SDS011;33558;50.922;14.068;2022-09-30T08:33:57;9.83;;;7.40;;
47796;SDS011;33558;50.922;14.068;2022-09-30T08:36:26;9.20;;;7.33;;
47796;SDS011;33558;50.922;14.068;2022-09-30T08:38:53;9.43;;;7.53;;
47796;SDS011;33558;50.922;14.068;2022-09-30T08:41:28;8.43;;;7.07;;
47796;SDS011;33558;50.922;14.068;2022-09-30T08:44:06;8.60;;;7.00;;
47796;SDS011;33558;50.922;14.068;2022-09-30T08:46:42;9.50;;;7.57;;
47796;SDS011;33558;50.922;14.068;2022-09-30T08:49:19;10.73;;;7.67;;
47796;SDS011;33558;50.922;14.068;2022-09-30T12:43:14;2.47;;;1.60;;
47796;SDS011;33558;50.922;14.068;2022-09-30T12:48:38;3.45;;;1.80;;
47796;SDS011;33558;50.922;14.068;2022-09-30T12:51:06;2.55;;;1.38;;
47796;SDS011;33558;50.922;14.068;2022-09-30T12:53:34;5.00;;;1.60;;
47796;SDS011;33558;50.922;14.068;2022-09-30T12:56:05;2.00;;;1.50;;
47796;SDS011;33558;50.922;14.068;2022-09-30T12:58:33;2.17;;;1.48;;
47796;SDS011;33558;50.922;14.068;2022-09-30T13:01:03;1.58;;;1.30;;
47796;SDS011;33558;50.922;14.068;2022-09-30T13:03:45;2.08;;;1.50;;
47796;SDS011;33558;50.922;14.068;2022-09-30T13:06:15;6.35;;;3.22;;
47796;SDS011;33558;50.922;14.068;2022-09-30T13:08:44;3.00;;;1.60;;
47796;SDS011;33558;50.922;14.068;2022-09-30T13:11:32;4.72;;;1.70;;
47796;SDS011;33558;50.922;14.068;2022-09-30T13:14:16;3.25;;;1.35;;
47796;SDS011;33558;50.922;14.068;2022-09-30T13:16:57;3.33;;;1.60;;
47796;SDS011;33558;50.922;14.068;2022-09-30T13:19:35;2.25;;;1.50;;
47796;SDS011;33558;50.922;14.068;2022-09-30T13:25:19;5.53;;;2.53;;
47796;SDS011;33558;50.922;14.068;2022-09-30T13:27:47;3.83;;;2.05;;
47796;SDS011;33558;50.922;14.068;2022-09-30T13:33:24;2.03;;;1.63;;
47796;SDS011;33558;50.922;14.068;2022-09-30T13:35:56;5.28;;;2.75;;
47796;SDS011;33558;50.922;14.068;2022-09-30T13:38:32;2.97;;;2.00;;
47796;SDS011;33558;50.922;14.068;2022-09-30T13:41:01;5.18;;;1.88;;
47796;SDS011;33558;50.922;14.068;2022-09-30T13:43:33;2.67;;;1.58;;
47796;SDS011;33558;50.922;14.068;2022-09-30T13:46:03;2.25;;;1.42;;
47796;SDS011;33558;50.922;14.068;2022-09-30T13:48:34;2.42;;;1.52;;
47796;SDS011;33558;50.922;14.068;2022-09-30T13:51:03;1.88;;;1.50;;
47796;SDS011;33558;50.922;14.068;2022-09-30T13:53:33;2.75;;;1.65;;
47796;SDS011;33558;50.922;14.068;2022-09-30T13:56:04;5.28;;;2.42;;
47796;SDS011;33558;50.922;14.068;2022-09-30T14:01:40;4.80;;;1.70;;
47796;SDS011;33558;50.922;14.068;2022-09-30T14:04:17;2.50;;;1.80;;
47796;SDS011;33558;50.922;14.068;2022-09-30T14:07:04;2.05;;;1.60;;
47796;SDS011;33558;50.922;14.068;2022-09-30T14:09:46;2.03;;;1.50;;
47796;SDS011;33558;50.922;14.068;2022-09-30T14:12:25;2.63;;;1.70;;
47796;SDS011;33558;50.922;14.068;2022-09-30T14:15:04;3.65;;;1.80;;
47796;SDS011;33558;50.922;14.068;2022-09-30T14:20:38;2.97;;;2.10;;
47796;SDS011;33558;50.922;14.068;2022-09-30T14:23:12;2.83;;;1.98;;
47796;SDS011;33558;50.922;14.068;2022-09-30T14:25:41;2.05;;;1.83;;
47796;SDS011;33558;50.922;14.068;2022-09-30T14:28:12;3.28;;;2.05;;
47796;SDS011;33558;50.922;14.068;2022-09-30T14:30:44;3.25;;;1.90;;
47796;SDS011;33558;50.922;14.068;2022-09-30T14:33:31;4.55;;;2.10;;
47796;SDS011;33558;50.922;14.068;2022-09-30T14:35:59;5.47;;;2.58;;
47796;SDS011;33558;50.922;14.068;2022-09-30T14:38:27;4.35;;;2.00;;
47796;SDS011;33558;50.922;14.068;2022-09-30T14:40:55;5.97;;;1.80;;
47796;SDS011;33558;50.922;14.068;2022-09-30T14:43:25;2.83;;;2.20;;
47796;SDS011;33558;50.922;14.068;2022-09-30T14:46:00;4.20;;;1.77;;
47796;SDS011;33558;50.922;14.068;2022-09-30T14:48:30;2.63;;;2.22;;
47796;SDS011;33558;50.922;14.068;2022-09-30T14:50:59;5.65;;;2.00;;
47796;SDS011;33558;50.922;14.068;2022-09-30T14:53:29;3.38;;;2.10;;
47796;SDS011;33558;50.922;14.068;2022-09-30T14:55:57;3.75;;;2.05;;
47796;SDS011;33558;50.922;14.068;2022-09-30T14:58:25;3.67;;;2.33;;
47796;SDS011;33558;50.922;14.068;2022-09-30T15:01:00;2.70;;;1.95;;
47796;SDS011;33558;50.922;14.068;2022-09-30T15:03:31;3.97;;;2.38;;
47796;SDS011;33558;50.922;14.068;2022-09-30T15:06:00;4.63;;;2.63;;
47796;SDS011;33558;50.922;14.068;2022-09-30T15:08:26;4.07;;;2.78;;
47796;SDS011;33558;50.922;14.068;2022-09-30T15:10:54;3.83;;;2.20;;
47796;SDS011;33558;50.922;14.068;2022-09-30T15:13:22;14.02;;;2.47;;
47796;SDS011;33558;50.922;14.068;2022-09-30T15:15:50;8.70;;;3.08;;
47796;SDS011;33558;50.922;14.068;2022-09-30T15:21:09;4.35;;;2.75;;
47796;SDS011;33558;50.922;14.068;2022-09-30T15:23:38;3.13;;;2.10;;
47796;SDS011;33558;50.922;14.068;2022-09-30T15:26:06;3.42;;;2.25;;
47796;SDS011;33558;50.922;14.068;2022-09-30T15:28:36;3.03;;;2.30;;
47796;SDS011;33558;50.922;14.068;2022-09-30T15:31:04;2.95;;;2.22;;
47796;SDS011;33558;50.922;14.068;2022-09-30T15:33:32;4.22;;;2.88;;
47796;SDS011;33558;50.922;14.068;2022-09-30T15:36:01;3.75;;;2.70;;
47796;SDS011;33558;50.922;14.068;2022-09-30T15:38:30;3.58;;;2.33;;
47796;SDS011;33558;50.922;14.068;2022-09-30T15:41:00;6.57;;;3.00;;
47796;SDS011;33558;50.922;14.068;2022-09-30T15:43:30;4.53;;;3.03;;
47796;SDS011;33558;50.922;14.068;2022-09-30T15:46:14;4.63;;;3.33;;
47796;SDS011;33558;50.922;14.068;2022-09-30T15:48:52;3.78;;;3.17;;
47796;SDS011;33558;50.922;14.068;2022-09-30T15:51:26;3.92;;;3.08;;
47796;SDS011;33558;50.922;14.068;2022-09-30T15:54:00;4.90;;;3.28;;
47796;SDS011;33558;50.922;14.068;2022-09-30T15:56:30;5.53;;;3.47;;
47796;SDS011;33558;50.922;14.068;2022-09-30T15:59:00;6.10;;;4.43;;
47796;SDS011;33558;50.922;14.068;2022-09-30T16:01:31;8.80;;;5.20;;
47796;SDS011;33558;50.922;14.068;2022-09-30T16:04:00;7.30;;;5.20;;
47796;SDS011;33558;50.922;14.068;2022-09-30T16:06:31;6.68;;;5.20;;
47796;SDS011;33558;50.922;14.068;2022-09-30T16:09:00;8.00;;;5.05;;
47796;SDS011;33558;50.922;14.068;2022-09-30T16:11:31;6.22;;;4.40;;
47796;SDS011;33558;50.922;14.068;2022-09-30T16:14:01;6.47;;;4.18;;
47796;SDS011;33558;50.922;14.068;2022-09-30T16:16:31;7.95;;;5.60;;
47796;SDS011;33558;50.922;14.068;2022-09-30T16:18:59;7.35;;;4.82;;
47796;SDS011;33558;50.922;14.068;2022-09-30T16:21:27;7.05;;;5.18;;
47796;SDS011;33558;50.922;14.068;2022-09-30T16:29:56;6.38;;;4.05;;
47796;SDS011;33558;50.922;14.068;2022-09-30T16:32:24;6.65;;;4.35;;
47796;SDS011;33558;50.922;14.068;2022-09-30T16:34:55;6.40;;;4.70;;
47796;SDS011;33558;50.922;14.068;2022-09-30T16:37:24;5.50;;;4.50;;
47796;SDS011;33558;50.922;14.068;2022-09-30T16:39:50;6.30;;;4.90;;
47796;SDS011;33558;50.922;14.068;2022-09-30T16:42:17;5.57;;;4.18;;
47796;SDS011;33558;50.922;14.068;2022-09-30T16:44:44;5.32;;;4.10;;
47796;SDS011;33558;50.922;14.068;2022-09-30T16:47:12;6.20;;;4.13;;
47796;SDS011;33558;50.922;14.068;2022-09-30T16:49:40;6.53;;;4.00;;
47796;SDS011;33558;50.922;14.068;2022-09-30T16:52:08;7.50;;;3.83;;
47796;SDS011;33558;50.922;14.068;2022-09-30T16:54:37;6.17;;;4.07;;
47796;SDS011;33558;50.922;14.068;2022-09-30T16:57:03;7.00;;;3.47;;
47796;SDS011;33558;50.922;14.068;2022-09-30T16:59:30;5.43;;;3.33;;
47796;SDS011;33558;50.922;14.068;2022-09-30T17:01:57;5.30;;;2.93;;
47796;SDS011;33558;50.922;14.068;2022-09-30T17:04:24;6.53;;;3.50;;
47796;SDS011;33558;50.922;14.068;2022-09-30T17:06:51;5.77;;;4.27;;
47796;SDS011;33558;50.922;14.068;2022-09-30T17:09:18;5.83;;;4.23;;
47796;SDS011;33558;50.922;14.068;2022-09-30T17:11:46;4.90;;;3.97;;
47796;SDS011;33558;50.922;14.068;2022-09-30T17:14:17;5.90;;;5.07;;
47796;SDS011;33558;50.922;14.068;2022-09-30T17:16:44;7.10;;;4.77;;
47796;SDS011;33558;50.922;14.068;2022-09-30T17:19:11;6.77;;;4.57;;
47796;SDS011;33558;50.922;14.068;2022-09-30T17:21:38;6.30;;;4.63;;
47796;SDS011;33558;50.922;14.068;2022-09-30T17:24:05;7.60;;;4.97;;
47796;SDS011;33558;50.922;14.068;2022-09-30T17:26:32;7.40;;;5.23;;
47796;SDS011;33558;50.922;14.068;2022-09-30T17:29:00;6.30;;;4.40;;
47796;SDS011;33558;50.922;14.068;2022-09-30T17:31:27;5.93;;;4.53;;
47796;SDS011;33558;50.922;14.068;2022-09-30T17:33:54;7.43;;;5.20;;
47796;SDS011;33558;50.922;14.068;2022-09-30T17:36:21;6.00;;;4.90;;
47796;SDS011;33558;50.922;14.068;2022-09-30T17:38:51;6.60;;;4.77;;
47796;SDS011;33558;50.922;14.068;2022-09-30T17:41:19;5.43;;;4.57;;
47796;SDS011;33558;50.922;14.068;2022-09-30T17:44:04;5.10;;;4.43;;
47796;SDS011;33558;50.922;14.068;2022-09-30T17:46:38;6.40;;;4.40;;
47796;SDS011;33558;50.922;14.068;2022-09-30T17:49:06;6.47;;;4.93;;
47796;SDS011;33558;50.922;14.068;2022-09-30T17:51:33;8.43;;;5.73;;
47796;SDS011;33558;50.922;14.068;2022-09-30T17:54:00;9.30;;;5.87;;
47796;SDS011;33558;50.922;14.068;2022-09-30T17:56:27;7.23;;;5.43;;
47796;SDS011;33558;50.922;14.068;2022-09-30T17:58:54;7.77;;;6.00;;
47796;SDS011;33558;50.922;14.068;2022-09-30T18:01:23;8.53;;;6.10;;
47796;SDS011;33558;50.922;14.068;2022-09-30T18:03:49;10.90;;;8.60;;
47796;SDS011;33558;50.922;14.068;2022-09-30T18:06:17;9.63;;;7.83;;
47796;SDS011;33558;50.922;14.068;2022-09-30T18:08:46;11.00;;;6.30;;
47796;SDS011;33558;50.922;14.068;2022-09-30T18:11:17;9.77;;;6.37;;
47796;SDS011;33558;50.922;14.068;2022-09-30T18:13:49;11.37;;;6.20;;
47796;SDS011;33558;50.922;14.068;2022-09-30T18:16:17;8.80;;;5.67;;
47796;SDS011;33558;50.922;14.068;2022-09-30T18:18:45;7.73;;;6.23;;
47796;SDS011;33558;50.922;14.068;2022-09-30T18:21:11;8.83;;;6.20;;
47796;SDS011;33558;50.922;14.068;2022-09-30T18:23:38;7.60;;;6.00;;
47796;SDS011;33558;50.922;14.068;2022-09-30T18:26:05;8.50;;;6.70;;
47796;SDS011;33558;50.922;14.068;2022-09-30T18:28:32;9.07;;;6.20;;
47796;SDS011;33558;50.922;14.068;2022-09-30T18:31:03;8.53;;;6.20;;
47796;SDS011;33558;50.922;14.068;2022-09-30T18:33:30;10.03;;;6.73;;
47796;SDS011;33558;50.922;14.068;2022-09-30T18:35:59;8.17;;;5.93;;
47796;SDS011;33558;50.922;14.068;2022-09-30T18:38:27;7.47;;;6.50;;
47796;SDS011;33558;50.922;14.068;2022-09-30T18:40:54;9.17;;;7.00;;
47796;SDS011;33558;50.922;14.068;2022-09-30T18:43:20;9.80;;;8.07;;
47796;SDS011;33558;50.922;14.068;2022-09-30T18:45:51;10.40;;;7.90;;
47796;SDS011;33558;50.922;14.068;2022-09-30T18:48:18;12.43;;;8.60;;
47796;SDS011;33558;50.922;14.068;2022-09-30T18:50:45;11.13;;;9.07;;
47796;SDS011;33558;50.922;14.068;2022-09-30T18:53:16;13.23;;;9.40;;
47796;SDS011;33558;50.922;14.068;2022-09-30T18:55:44;12.20;;;8.70;;
47796;SDS011;33558;50.922;14.068;2022-09-30T18:58:10;11.93;;;8.77;;
47796;SDS011;33558;50.922;14.068;2022-09-30T19:00:40;11.73;;;8.23;;
47796;SDS011;33558;50.922;14.068;2022-09-30T19:03:07;9.97;;;8.03;;
47796;SDS011;33558;50.922;14.068;2022-09-30T19:05:38;11.63;;;7.90;;
47796;SDS011;33558;50.922;14.068;2022-09-30T19:08:05;17.47;;;9.50;;
47796;SDS011;33558;50.922;14.068;2022-09-30T19:10:37;12.53;;;8.97;;
47796;SDS011;33558;50.922;14.068;2022-09-30T19:13:04;12.17;;;8.40;;
47796;SDS011;33558;50.922;14.068;2022-09-30T19:15:31;12.50;;;7.87;;
47796;SDS011;33558;50.922;14.068;2022-09-30T19:17:58;12.07;;;6.87;;
47796;SDS011;33558;50.922;14.068;2022-09-30T19:20:25;10.10;;;7.83;;
47796;SDS011;33558;50.922;14.068;2022-09-30T19:22:52;11.80;;;8.03;;
47796;SDS011;33558;50.922;14.068;2022-09-30T19:25:19;10.93;;;8.10;;
47796;SDS011;33558;50.922;14.068;2022-09-30T19:27:48;11.00;;;8.47;;
47796;SDS011;33558;50.922;14.068;2022-09-30T19:30:15;13.47;;;8.80;;
47796;SDS011;33558;50.922;14.068;2022-09-30T19:32:42;10.40;;;8.13;;
47796;SDS011;33558;50.922;14.068;2022-09-30T19:35:09;11.73;;;8.17;;
47796;SDS011;33558;50.922;14.068;2022-09-30T19:37:38;10.80;;;7.53;;